sensor_id;sensor_type;location;lat;lon;timestamp;P1;durP1;ratioP1;P2;durP2;ratioP2
69419;SDS011;71621;52.030;113.516;2024-02-26T00:01:31;53.35;;;19.05;;
69419;SDS011;71621;52.030;113.516;2024-02-26T00:04:36;51.72;;;18.92;;
69419;SDS011;71621;52.030;113.516;2024-02-26T00:07:40;61.57;;;17.73;;
69419;SDS011;71621;52.030;113.516;2024-02-26T00:10:43;31.48;;;16.52;;
69419;SDS011;71621;52.030;113.516;2024-02-26T00:13:47;35.33;;;16.38;;
69419;SDS011;71621;52.030;113.516;2024-02-26T00:16:50;37.40;;;12.10;;
69419;SDS011;71621;52.030;113.516;2024-02-26T00:19:54;43.28;;;14.10;;
69419;SDS011;71621;52.030;113.516;2024-02-26T00:22:58;55.03;;;13.70;;
69419;SDS011;71621;52.030;113.516;2024-02-26T00:26:01;73.43;;;15.13;;
69419;SDS011;71621;52.030;113.516;2024-02-26T00:29:06;45.27;;;11.83;;
69419;SDS011;71621;52.030;113.516;2024-02-26T00:32:09;34.75;;;8.95;;
69419;SDS011;71621;52.030;113.516;2024-02-26T00:35:13;32.42;;;9.60;;
69419;SDS011;71621;52.030;113.516;2024-02-26T00:38:18;23.27;;;7.80;;
69419;SDS011;71621;52.030;113.516;2024-02-26T00:41:21;25.35;;;9.68;;
69419;SDS011;71621;52.030;113.516;2024-02-26T00:44:25;28.70;;;9.18;;
69419;SDS011;71621;52.030;113.516;2024-02-26T00:47:29;16.08;;;6.93;;
69419;SDS011;71621;52.030;113.516;2024-02-26T00:50:32;16.73;;;7.00;;
69419;SDS011;71621;52.030;113.516;2024-02-26T00:53:36;15.35;;;5.93;;
69419;SDS011;71621;52.030;113.516;2024-02-26T00:56:40;23.92;;;7.43;;
69419;SDS011;71621;52.030;113.516;2024-02-26T00:59:43;27.90;;;7.67;;
69419;SDS011;71621;52.030;113.516;2024-02-26T01:02:47;34.00;;;7.82;;
69419;SDS011;71621;52.030;113.516;2024-02-26T01:05:51;37.17;;;12.00;;
69419;SDS011;71621;52.030;113.516;2024-02-26T01:08:59;42.43;;;11.87;;
69419;SDS011;71621;52.030;113.516;2024-02-26T01:12:03;43.30;;;11.75;;
69419;SDS011;71621;52.030;113.516;2024-02-26T01:15:06;68.28;;;13.95;;
69419;SDS011;71621;52.030;113.516;2024-02-26T01:18:11;48.13;;;18.20;;
69419;SDS011;71621;52.030;113.516;2024-02-26T01:21:15;47.25;;;20.20;;
69419;SDS011;71621;52.030;113.516;2024-02-26T01:24:19;54.22;;;17.90;;
69419;SDS011;71621;52.030;113.516;2024-02-26T01:27:22;58.50;;;17.25;;
69419;SDS011;71621;52.030;113.516;2024-02-26T01:30:29;57.53;;;20.83;;
69419;SDS011;71621;52.030;113.516;2024-02-26T01:33:33;43.60;;;16.20;;
69419;SDS011;71621;52.030;113.516;2024-02-26T01:36:36;61.40;;;17.55;;
69419;SDS011;71621;52.030;113.516;2024-02-26T01:39:40;52.77;;;17.10;;
69419;SDS011;71621;52.030;113.516;2024-02-26T01:42:44;58.65;;;18.95;;
69419;SDS011;71621;52.030;113.516;2024-02-26T01:45:48;44.28;;;18.45;;
69419;SDS011;71621;52.030;113.516;2024-02-26T01:48:51;68.10;;;21.33;;
69419;SDS011;71621;52.030;113.516;2024-02-26T01:51:56;50.10;;;20.60;;
69419;SDS011;71621;52.030;113.516;2024-02-26T01:55:01;50.47;;;19.15;;
69419;SDS011;71621;52.030;113.516;2024-02-26T01:58:05;57.47;;;22.58;;
69419;SDS011;71621;52.030;113.516;2024-02-26T02:01:09;73.70;;;25.20;;
69419;SDS011;71621;52.030;113.516;2024-02-26T02:04:13;67.28;;;21.40;;
69419;SDS011;71621;52.030;113.516;2024-02-26T02:07:18;69.30;;;22.75;;
69419;SDS011;71621;52.030;113.516;2024-02-26T02:10:22;57.67;;;15.00;;
69419;SDS011;71621;52.030;113.516;2024-02-26T02:13:28;57.10;;;22.13;;
69419;SDS011;71621;52.030;113.516;2024-02-26T02:16:31;81.72;;;22.48;;
69419;SDS011;71621;52.030;113.516;2024-02-26T02:19:35;52.05;;;20.00;;
69419;SDS011;71621;52.030;113.516;2024-02-26T02:22:39;77.82;;;22.48;;
69419;SDS011;71621;52.030;113.516;2024-02-26T02:25:42;72.53;;;25.40;;
69419;SDS011;71621;52.030;113.516;2024-02-26T02:28:46;78.28;;;26.08;;
69419;SDS011;71621;52.030;113.516;2024-02-26T02:31:51;54.50;;;19.00;;
69419;SDS011;71621;52.030;113.516;2024-02-26T02:34:55;86.57;;;25.27;;
69419;SDS011;71621;52.030;113.516;2024-02-26T02:37:59;67.50;;;21.52;;
69419;SDS011;71621;52.030;113.516;2024-02-26T02:41:03;82.03;;;21.43;;
69419;SDS011;71621;52.030;113.516;2024-02-26T02:44:06;71.63;;;23.15;;
69419;SDS011;71621;52.030;113.516;2024-02-26T02:47:10;87.70;;;23.85;;
69419;SDS011;71621;52.030;113.516;2024-02-26T02:50:13;71.30;;;23.48;;
69419;SDS011;71621;52.030;113.516;2024-02-26T02:53:16;81.65;;;25.00;;
69419;SDS011;71621;52.030;113.516;2024-02-26T02:56:21;66.72;;;19.45;;
69419;SDS011;71621;52.030;113.516;2024-02-26T02:59:25;77.75;;;20.08;;
69419;SDS011;71621;52.030;113.516;2024-02-26T03:02:28;63.23;;;17.53;;
69419;SDS011;71621;52.030;113.516;2024-02-26T03:05:32;61.47;;;16.40;;
69419;SDS011;71621;52.030;113.516;2024-02-26T03:08:35;49.47;;;13.57;;
69419;SDS011;71621;52.030;113.516;2024-02-26T03:11:40;58.93;;;18.00;;
69419;SDS011;71621;52.030;113.516;2024-02-26T03:14:44;51.85;;;13.98;;
69419;SDS011;71621;52.030;113.516;2024-02-26T03:17:48;98.88;;;25.65;;
69419;SDS011;71621;52.030;113.516;2024-02-26T03:20:51;68.55;;;20.38;;
69419;SDS011;71621;52.030;113.516;2024-02-26T03:23:55;54.17;;;19.60;;
69419;SDS011;71621;52.030;113.516;2024-02-26T03:27:00;83.97;;;23.58;;
69419;SDS011;71621;52.030;113.516;2024-02-26T03:30:03;72.90;;;20.13;;
69419;SDS011;71621;52.030;113.516;2024-02-26T03:33:07;58.87;;;18.07;;
69419;SDS011;71621;52.030;113.516;2024-02-26T03:36:11;64.50;;;18.27;;
69419;SDS011;71621;52.030;113.516;2024-02-26T03:39:14;78.32;;;21.05;;
69419;SDS011;71621;52.030;113.516;2024-02-26T03:42:18;70.80;;;20.97;;
69419;SDS011;71621;52.030;113.516;2024-02-26T03:45:22;63.55;;;20.58;;
69419;SDS011;71621;52.030;113.516;2024-02-26T03:48:25;59.72;;;19.38;;
69419;SDS011;71621;52.030;113.516;2024-02-26T03:51:29;70.07;;;21.35;;
69419;SDS011;71621;52.030;113.516;2024-02-26T03:54:34;80.07;;;21.98;;
69419;SDS011;71621;52.030;113.516;2024-02-26T03:57:37;83.13;;;24.55;;
69419;SDS011;71621;52.030;113.516;2024-02-26T04:00:42;84.95;;;24.15;;
69419;SDS011;71621;52.030;113.516;2024-02-26T04:03:46;90.60;;;27.03;;
69419;SDS011;71621;52.030;113.516;2024-02-26T04:06:50;100.53;;;29.38;;
69419;SDS011;71621;52.030;113.516;2024-02-26T04:09:53;93.63;;;29.33;;
69419;SDS011;71621;52.030;113.516;2024-02-26T04:12:57;60.07;;;20.80;;
69419;SDS011;71621;52.030;113.516;2024-02-26T04:16:00;100.07;;;30.77;;
69419;SDS011;71621;52.030;113.516;2024-02-26T04:19:05;97.43;;;28.85;;
69419;SDS011;71621;52.030;113.516;2024-02-26T04:22:09;92.07;;;27.02;;
69419;SDS011;71621;52.030;113.516;2024-02-26T04:25:13;95.47;;;28.45;;
69419;SDS011;71621;52.030;113.516;2024-02-26T04:28:17;86.63;;;28.73;;
69419;SDS011;71621;52.030;113.516;2024-02-26T04:31:23;87.90;;;28.30;;
69419;SDS011;71621;52.030;113.516;2024-02-26T04:34:26;93.30;;;27.93;;
69419;SDS011;71621;52.030;113.516;2024-02-26T04:37:30;110.65;;;29.85;;
69419;SDS011;71621;52.030;113.516;2024-02-26T04:40:34;110.50;;;30.25;;
69419;SDS011;71621;52.030;113.516;2024-02-26T04:43:37;94.37;;;29.87;;
69419;SDS011;71621;52.030;113.516;2024-02-26T04:46:47;112.88;;;28.55;;
69419;SDS011;71621;52.030;113.516;2024-02-26T04:49:50;81.40;;;24.90;;
69419;SDS011;71621;52.030;113.516;2024-02-26T04:52:54;94.38;;;28.15;;
69419;SDS011;71621;52.030;113.516;2024-02-26T04:55:58;78.55;;;26.52;;
69419;SDS011;71621;52.030;113.516;2024-02-26T04:59:01;96.30;;;28.73;;
69419;SDS011;71621;52.030;113.516;2024-02-26T05:02:05;69.38;;;23.40;;
69419;SDS011;71621;52.030;113.516;2024-02-26T05:05:09;74.10;;;23.47;;
69419;SDS011;71621;52.030;113.516;2024-02-26T05:08:12;65.22;;;21.65;;
69419;SDS011;71621;52.030;113.516;2024-02-26T05:11:16;56.20;;;18.25;;
69419;SDS011;71621;52.030;113.516;2024-02-26T05:14:21;67.17;;;21.37;;
69419;SDS011;71621;52.030;113.516;2024-02-26T05:17:24;83.07;;;23.55;;
69419;SDS011;71621;52.030;113.516;2024-02-26T05:20:28;67.90;;;20.90;;
69419;SDS011;71621;52.030;113.516;2024-02-26T05:23:31;72.82;;;22.02;;
69419;SDS011;71621;52.030;113.516;2024-02-26T05:26:35;81.85;;;22.27;;
69419;SDS011;71621;52.030;113.516;2024-02-26T05:29:39;80.13;;;22.85;;
69419;SDS011;71621;52.030;113.516;2024-02-26T05:32:42;67.75;;;21.75;;
69419;SDS011;71621;52.030;113.516;2024-02-26T05:35:47;60.37;;;19.20;;
69419;SDS011;71621;52.030;113.516;2024-02-26T05:38:50;62.42;;;20.63;;
69419;SDS011;71621;52.030;113.516;2024-02-26T05:41:54;52.70;;;18.48;;
69419;SDS011;71621;52.030;113.516;2024-02-26T05:44:57;52.80;;;17.23;;
69419;SDS011;71621;52.030;113.516;2024-02-26T05:48:01;60.40;;;20.23;;
69419;SDS011;71621;52.030;113.516;2024-02-26T05:51:05;63.17;;;21.33;;
69419;SDS011;71621;52.030;113.516;2024-02-26T05:54:09;34.88;;;12.45;;
69419;SDS011;71621;52.030;113.516;2024-02-26T05:57:13;17.15;;;5.30;;
69419;SDS011;71621;52.030;113.516;2024-02-26T06:00:17;19.20;;;4.18;;
69419;SDS011;71621;52.030;113.516;2024-02-26T06:03:20;17.10;;;5.47;;
69419;SDS011;71621;52.030;113.516;2024-02-26T06:06:24;18.53;;;6.30;;
69419;SDS011;71621;52.030;113.516;2024-02-26T06:09:27;21.70;;;6.72;;
69419;SDS011;71621;52.030;113.516;2024-02-26T06:12:31;20.73;;;7.40;;
69419;SDS011;71621;52.030;113.516;2024-02-26T06:15:37;38.25;;;12.02;;
69419;SDS011;71621;52.030;113.516;2024-02-26T06:18:41;17.85;;;3.70;;
69419;SDS011;71621;52.030;113.516;2024-02-26T06:21:45;28.85;;;7.60;;
69419;SDS011;71621;52.030;113.516;2024-02-26T06:24:48;29.25;;;6.43;;
69419;SDS011;71621;52.030;113.516;2024-02-26T06:27:52;161.63;;;37.73;;
69419;SDS011;71621;52.030;113.516;2024-02-26T06:30:55;35.22;;;12.40;;
69419;SDS011;71621;52.030;113.516;2024-02-26T06:33:59;37.55;;;14.23;;
69419;SDS011;71621;52.030;113.516;2024-02-26T06:37:03;17.85;;;5.05;;
69419;SDS011;71621;52.030;113.516;2024-02-26T06:40:07;18.43;;;5.83;;
69419;SDS011;71621;52.030;113.516;2024-02-26T06:43:11;18.50;;;4.97;;
69419;SDS011;71621;52.030;113.516;2024-02-26T06:46:14;12.85;;;4.15;;
69419;SDS011;71621;52.030;113.516;2024-02-26T06:49:19;18.95;;;3.35;;
69419;SDS011;71621;52.030;113.516;2024-02-26T06:52:23;32.43;;;4.13;;
69419;SDS011;71621;52.030;113.516;2024-02-26T06:55:27;14.00;;;2.45;;
69419;SDS011;71621;52.030;113.516;2024-02-26T06:58:32;12.18;;;3.38;;
69419;SDS011;71621;52.030;113.516;2024-02-26T07:01:35;23.55;;;2.70;;
69419;SDS011;71621;52.030;113.516;2024-02-26T07:04:39;12.13;;;3.00;;
69419;SDS011;71621;52.030;113.516;2024-02-26T07:07:43;11.95;;;2.58;;
69419;SDS011;71621;52.030;113.516;2024-02-26T07:10:47;10.77;;;1.83;;
69419;SDS011;71621;52.030;113.516;2024-02-26T07:13:50;12.20;;;2.97;;
69419;SDS011;71621;52.030;113.516;2024-02-26T07:16:54;11.30;;;3.87;;
69419;SDS011;71621;52.030;113.516;2024-02-26T07:19:57;10.68;;;2.85;;
69419;SDS011;71621;52.030;113.516;2024-02-26T07:23:01;12.10;;;2.38;;
69419;SDS011;71621;52.030;113.516;2024-02-26T07:26:05;7.67;;;1.67;;
69419;SDS011;71621;52.030;113.516;2024-02-26T07:29:11;6.68;;;1.85;;
69419;SDS011;71621;52.030;113.516;2024-02-26T07:32:14;7.38;;;2.63;;
69419;SDS011;71621;52.030;113.516;2024-02-26T07:35:18;9.35;;;2.08;;
69419;SDS011;71621;52.030;113.516;2024-02-26T07:38:25;21.30;;;2.47;;
69419;SDS011;71621;52.030;113.516;2024-02-26T07:41:43;8.30;;;1.63;;
69419;SDS011;71621;52.030;113.516;2024-02-26T07:44:50;20.17;;;2.30;;
69419;SDS011;71621;52.030;113.516;2024-02-26T07:47:55;21.23;;;1.67;;
69419;SDS011;71621;52.030;113.516;2024-02-26T07:50:58;9.63;;;2.13;;
69419;SDS011;71621;52.030;113.516;2024-02-26T07:54:03;21.63;;;2.05;;
69419;SDS011;71621;52.030;113.516;2024-02-26T07:57:06;10.25;;;1.98;;
69419;SDS011;71621;52.030;113.516;2024-02-26T08:00:10;9.75;;;2.47;;
69419;SDS011;71621;52.030;113.516;2024-02-26T08:03:14;15.70;;;2.13;;
69419;SDS011;71621;52.030;113.516;2024-02-26T08:06:18;9.02;;;1.42;;
69419;SDS011;71621;52.030;113.516;2024-02-26T08:09:22;12.98;;;2.47;;
69419;SDS011;71621;52.030;113.516;2024-02-26T08:12:25;10.82;;;2.03;;
69419;SDS011;71621;52.030;113.516;2024-02-26T08:15:29;17.13;;;3.07;;
69419;SDS011;71621;52.030;113.516;2024-02-26T08:18:32;8.68;;;1.75;;
69419;SDS011;71621;52.030;113.516;2024-02-26T08:21:36;16.58;;;3.28;;
69419;SDS011;71621;52.030;113.516;2024-02-26T08:24:40;7.38;;;1.10;;
69419;SDS011;71621;52.030;113.516;2024-02-26T08:27:43;9.77;;;2.78;;
69419;SDS011;71621;52.030;113.516;2024-02-26T08:30:47;16.10;;;3.10;;
69419;SDS011;71621;52.030;113.516;2024-02-26T08:33:50;13.88;;;2.95;;
69419;SDS011;71621;52.030;113.516;2024-02-26T08:36:54;12.03;;;2.77;;
69419;SDS011;71621;52.030;113.516;2024-02-26T08:39:57;16.52;;;2.28;;
69419;SDS011;71621;52.030;113.516;2024-02-26T08:43:07;9.93;;;2.58;;
69419;SDS011;71621;52.030;113.516;2024-02-26T08:46:12;18.45;;;5.50;;
69419;SDS011;71621;52.030;113.516;2024-02-26T08:49:15;24.08;;;4.10;;
69419;SDS011;71621;52.030;113.516;2024-02-26T08:52:19;5.20;;;1.42;;
69419;SDS011;71621;52.030;113.516;2024-02-26T08:55:24;27.80;;;9.68;;
69419;SDS011;71621;52.030;113.516;2024-02-26T08:58:27;20.00;;;4.17;;
69419;SDS011;71621;52.030;113.516;2024-02-26T09:01:31;18.83;;;2.97;;
69419;SDS011;71621;52.030;113.516;2024-02-26T09:04:35;18.52;;;5.03;;
69419;SDS011;71621;52.030;113.516;2024-02-26T09:07:39;9.30;;;2.42;;
69419;SDS011;71621;52.030;113.516;2024-02-26T09:10:43;22.97;;;5.23;;
69419;SDS011;71621;52.030;113.516;2024-02-26T09:13:46;47.95;;;12.38;;
69419;SDS011;71621;52.030;113.516;2024-02-26T09:16:50;17.00;;;5.13;;
69419;SDS011;71621;52.030;113.516;2024-02-26T09:19:54;28.40;;;8.75;;
69419;SDS011;71621;52.030;113.516;2024-02-26T09:22:58;46.08;;;12.70;;
69419;SDS011;71621;52.030;113.516;2024-02-26T09:26:01;13.10;;;3.17;;
69419;SDS011;71621;52.030;113.516;2024-02-26T09:29:05;14.27;;;3.80;;
69419;SDS011;71621;52.030;113.516;2024-02-26T09:32:08;20.70;;;7.17;;
69419;SDS011;71621;52.030;113.516;2024-02-26T09:35:12;21.25;;;6.35;;
69419;SDS011;71621;52.030;113.516;2024-02-26T09:38:16;20.98;;;7.80;;
69419;SDS011;71621;52.030;113.516;2024-02-26T09:41:19;32.23;;;10.07;;
69419;SDS011;71621;52.030;113.516;2024-02-26T09:44:23;41.92;;;13.65;;
69419;SDS011;71621;52.030;113.516;2024-02-26T09:47:28;56.03;;;15.88;;
69419;SDS011;71621;52.030;113.516;2024-02-26T09:50:35;45.33;;;13.70;;
69419;SDS011;71621;52.030;113.516;2024-02-26T09:53:39;25.33;;;7.68;;
69419;SDS011;71621;52.030;113.516;2024-02-26T09:56:47;48.20;;;17.73;;
69419;SDS011;71621;52.030;113.516;2024-02-26T10:00:05;108.13;;;33.65;;
69419;SDS011;71621;52.030;113.516;2024-02-26T10:03:13;69.93;;;22.70;;
69419;SDS011;71621;52.030;113.516;2024-02-26T10:06:18;21.08;;;6.65;;
69419;SDS011;71621;52.030;113.516;2024-02-26T10:09:22;23.90;;;7.57;;
69419;SDS011;71621;52.030;113.516;2024-02-26T10:12:27;18.90;;;7.03;;
69419;SDS011;71621;52.030;113.516;2024-02-26T10:15:33;22.93;;;7.50;;
69419;SDS011;71621;52.030;113.516;2024-02-26T10:21:57;25.90;;;9.57;;
69419;SDS011;71621;52.030;113.516;2024-02-26T10:25:01;36.17;;;12.00;;
69419;SDS011;71621;52.030;113.516;2024-02-26T10:28:04;23.60;;;7.00;;
69419;SDS011;71621;52.030;113.516;2024-02-26T10:31:10;31.40;;;10.90;;
69419;SDS011;71621;52.030;113.516;2024-02-26T10:34:17;19.75;;;5.70;;
69419;SDS011;71621;52.030;113.516;2024-02-26T10:37:22;26.93;;;6.83;;
69419;SDS011;71621;52.030;113.516;2024-02-26T10:40:28;19.17;;;5.68;;
69419;SDS011;71621;52.030;113.516;2024-02-26T10:43:32;41.30;;;10.23;;
69419;SDS011;71621;52.030;113.516;2024-02-26T10:46:35;36.40;;;11.57;;
69419;SDS011;71621;52.030;113.516;2024-02-26T10:49:44;30.50;;;7.00;;
69419;SDS011;71621;52.030;113.516;2024-02-26T10:52:50;26.88;;;6.25;;
69419;SDS011;71621;52.030;113.516;2024-02-26T10:55:55;31.33;;;5.43;;
69419;SDS011;71621;52.030;113.516;2024-02-26T10:59:02;14.17;;;4.20;;
69419;SDS011;71621;52.030;113.516;2024-02-26T11:02:07;38.90;;;7.20;;
69419;SDS011;71621;52.030;113.516;2024-02-26T11:05:12;12.20;;;3.97;;
69419;SDS011;71621;52.030;113.516;2024-02-26T11:08:18;16.50;;;3.80;;
69419;SDS011;71621;52.030;113.516;2024-02-26T11:11:24;12.90;;;5.03;;
69419;SDS011;71621;52.030;113.516;2024-02-26T11:14:30;28.95;;;5.88;;
69419;SDS011;71621;52.030;113.516;2024-02-26T11:17:35;21.30;;;6.00;;
69419;SDS011;71621;52.030;113.516;2024-02-26T11:20:41;24.40;;;7.83;;
69419;SDS011;71621;52.030;113.516;2024-02-26T11:23:46;17.80;;;7.47;;
69419;SDS011;71621;52.030;113.516;2024-02-26T11:27:03;21.23;;;7.53;;
69419;SDS011;71621;52.030;113.516;2024-02-26T11:30:09;46.10;;;15.30;;
69419;SDS011;71621;52.030;113.516;2024-02-26T11:33:14;22.58;;;7.85;;
69419;SDS011;71621;52.030;113.516;2024-02-26T11:36:19;36.55;;;10.43;;
69419;SDS011;71621;52.030;113.516;2024-02-26T11:39:23;51.85;;;13.98;;
69419;SDS011;71621;52.030;113.516;2024-02-26T11:42:27;35.33;;;11.33;;
69419;SDS011;71621;52.030;113.516;2024-02-26T11:48:59;67.57;;;20.15;;
69419;SDS011;71621;52.030;113.516;2024-02-26T11:52:08;53.93;;;15.43;;
69419;SDS011;71621;52.030;113.516;2024-02-26T11:55:12;83.60;;;22.27;;
69419;SDS011;71621;52.030;113.516;2024-02-26T11:58:35;45.55;;;13.00;;
69419;SDS011;71621;52.030;113.516;2024-02-26T12:04:50;25.10;;;6.20;;
69419;SDS011;71621;52.030;113.516;2024-02-26T12:07:55;21.73;;;6.13;;
69419;SDS011;71621;52.030;113.516;2024-02-26T12:11:04;25.02;;;9.15;;
69419;SDS011;71621;52.030;113.516;2024-02-26T12:14:17;29.57;;;9.10;;
69419;SDS011;71621;52.030;113.516;2024-02-26T12:17:22;30.67;;;9.18;;
69419;SDS011;71621;52.030;113.516;2024-02-26T12:20:26;38.03;;;9.48;;
69419;SDS011;71621;52.030;113.516;2024-02-26T12:23:30;51.50;;;15.47;;
69419;SDS011;71621;52.030;113.516;2024-02-26T12:26:34;41.97;;;16.35;;
69419;SDS011;71621;52.030;113.516;2024-02-26T12:29:37;46.58;;;13.23;;
69419;SDS011;71621;52.030;113.516;2024-02-26T12:32:41;76.07;;;21.25;;
69419;SDS011;71621;52.030;113.516;2024-02-26T12:35:44;176.15;;;47.70;;
69419;SDS011;71621;52.030;113.516;2024-02-26T12:38:50;180.93;;;52.78;;
69419;SDS011;71621;52.030;113.516;2024-02-26T12:41:55;198.98;;;57.28;;
69419;SDS011;71621;52.030;113.516;2024-02-26T12:45:02;223.97;;;62.83;;
69419;SDS011;71621;52.030;113.516;2024-02-26T12:48:10;229.02;;;68.70;;
69419;SDS011;71621;52.030;113.516;2024-02-26T12:51:16;256.48;;;73.50;;
69419;SDS011;71621;52.030;113.516;2024-02-26T12:54:20;267.80;;;75.80;;
69419;SDS011;71621;52.030;113.516;2024-02-26T12:57:24;258.65;;;72.97;;
69419;SDS011;71621;52.030;113.516;2024-02-26T13:00:28;232.38;;;71.53;;
69419;SDS011;71621;52.030;113.516;2024-02-26T13:03:33;249.93;;;64.75;;
69419;SDS011;71621;52.030;113.516;2024-02-26T13:06:38;115.97;;;33.15;;
69419;SDS011;71621;52.030;113.516;2024-02-26T13:09:42;161.18;;;46.08;;
69419;SDS011;71621;52.030;113.516;2024-02-26T13:12:46;169.82;;;49.75;;
69419;SDS011;71621;52.030;113.516;2024-02-26T13:16:02;163.53;;;47.80;;
69419;SDS011;71621;52.030;113.516;2024-02-26T13:19:10;191.57;;;49.15;;
69419;SDS011;71621;52.030;113.516;2024-02-26T13:22:14;146.30;;;42.25;;
69419;SDS011;71621;52.030;113.516;2024-02-26T13:25:21;177.20;;;50.27;;
69419;SDS011;71621;52.030;113.516;2024-02-26T13:28:24;176.88;;;48.00;;
69419;SDS011;71621;52.030;113.516;2024-02-26T13:31:30;173.77;;;48.70;;
69419;SDS011;71621;52.030;113.516;2024-02-26T13:34:34;160.05;;;43.60;;
69419;SDS011;71621;52.030;113.516;2024-02-26T13:37:40;137.15;;;41.67;;
69419;SDS011;71621;52.030;113.516;2024-02-26T13:40:43;125.38;;;39.75;;
69419;SDS011;71621;52.030;113.516;2024-02-26T13:43:47;156.68;;;40.80;;
69419;SDS011;71621;52.030;113.516;2024-02-26T13:46:51;126.40;;;38.97;;
69419;SDS011;71621;52.030;113.516;2024-02-26T13:49:54;138.27;;;38.67;;
69419;SDS011;71621;52.030;113.516;2024-02-26T13:52:58;129.13;;;37.03;;
69419;SDS011;71621;52.030;113.516;2024-02-26T13:56:02;105.80;;;32.17;;
69419;SDS011;71621;52.030;113.516;2024-02-26T13:59:08;108.25;;;30.20;;
69419;SDS011;71621;52.030;113.516;2024-02-26T14:02:11;95.38;;;27.67;;
69419;SDS011;71621;52.030;113.516;2024-02-26T14:05:15;80.35;;;24.40;;
69419;SDS011;71621;52.030;113.516;2024-02-26T14:08:19;175.40;;;31.90;;
69419;SDS011;71621;52.030;113.516;2024-02-26T14:11:22;213.10;;;38.28;;
69419;SDS011;71621;52.030;113.516;2024-02-26T14:14:27;144.07;;;36.22;;
69419;SDS011;71621;52.030;113.516;2024-02-26T14:17:31;140.70;;;25.77;;
69419;SDS011;71621;52.030;113.516;2024-02-26T14:20:34;148.27;;;26.15;;
69419;SDS011;71621;52.030;113.516;2024-02-26T14:23:38;122.25;;;26.13;;
69419;SDS011;71621;52.030;113.516;2024-02-26T14:26:42;91.07;;;25.97;;
69419;SDS011;71621;52.030;113.516;2024-02-26T14:29:46;157.00;;;29.13;;
69419;SDS011;71621;52.030;113.516;2024-02-26T14:32:49;139.45;;;27.08;;
69419;SDS011;71621;52.030;113.516;2024-02-26T14:35:53;88.25;;;22.02;;
69419;SDS011;71621;52.030;113.516;2024-02-26T14:38:56;92.95;;;20.30;;
69419;SDS011;71621;52.030;113.516;2024-02-26T14:42:01;72.82;;;19.30;;
69419;SDS011;71621;52.030;113.516;2024-02-26T14:45:05;138.18;;;30.40;;
69419;SDS011;71621;52.030;113.516;2024-02-26T14:48:11;79.87;;;25.87;;
69419;SDS011;71621;52.030;113.516;2024-02-26T14:51:15;88.30;;;24.67;;
69419;SDS011;71621;52.030;113.516;2024-02-26T14:54:19;74.95;;;20.23;;
69419;SDS011;71621;52.030;113.516;2024-02-26T14:57:24;95.87;;;21.33;;
69419;SDS011;71621;52.030;113.516;2024-02-26T15:00:27;108.28;;;27.65;;
69419;SDS011;71621;52.030;113.516;2024-02-26T15:03:31;122.47;;;34.05;;
69419;SDS011;71621;52.030;113.516;2024-02-26T15:06:35;204.38;;;53.70;;
69419;SDS011;71621;52.030;113.516;2024-02-26T15:09:41;167.98;;;45.20;;
69419;SDS011;71621;52.030;113.516;2024-02-26T15:12:45;209.80;;;59.25;;
69419;SDS011;71621;52.030;113.516;2024-02-26T15:15:48;178.45;;;48.35;;
69419;SDS011;71621;52.030;113.516;2024-02-26T15:18:52;210.03;;;54.90;;
69419;SDS011;71621;52.030;113.516;2024-02-26T15:21:56;237.02;;;64.38;;
69419;SDS011;71621;52.030;113.516;2024-02-26T15:24:59;215.05;;;59.63;;
69419;SDS011;71621;52.030;113.516;2024-02-26T15:28:03;249.20;;;65.10;;
69419;SDS011;71621;52.030;113.516;2024-02-26T15:31:09;209.98;;;61.40;;
69419;SDS011;71621;52.030;113.516;2024-02-26T15:34:16;224.10;;;63.78;;
69419;SDS011;71621;52.030;113.516;2024-02-26T15:37:20;244.93;;;67.55;;
69419;SDS011;71621;52.030;113.516;2024-02-26T15:40:23;230.32;;;59.38;;
69419;SDS011;71621;52.030;113.516;2024-02-26T15:43:27;220.65;;;58.72;;
69419;SDS011;71621;52.030;113.516;2024-02-26T15:46:31;221.30;;;51.70;;
69419;SDS011;71621;52.030;113.516;2024-02-26T15:49:35;184.27;;;48.70;;
69419;SDS011;71621;52.030;113.516;2024-02-26T15:52:38;208.93;;;54.75;;
69419;SDS011;71621;52.030;113.516;2024-02-26T15:55:43;198.20;;;55.97;;
69419;SDS011;71621;52.030;113.516;2024-02-26T15:58:46;196.77;;;55.33;;
69419;SDS011;71621;52.030;113.516;2024-02-26T16:01:49;176.48;;;50.22;;
69419;SDS011;71621;52.030;113.516;2024-02-26T16:04:53;178.68;;;50.13;;
69419;SDS011;71621;52.030;113.516;2024-02-26T16:07:58;170.48;;;46.15;;
69419;SDS011;71621;52.030;113.516;2024-02-26T16:11:05;194.77;;;49.25;;
69419;SDS011;71621;52.030;113.516;2024-02-26T16:17:24;199.63;;;50.15;;
69419;SDS011;71621;52.030;113.516;2024-02-26T16:20:36;159.93;;;43.97;;
69419;SDS011;71621;52.030;113.516;2024-02-26T16:23:40;194.05;;;47.70;;
69419;SDS011;71621;52.030;113.516;2024-02-26T16:26:44;211.05;;;47.38;;
69419;SDS011;71621;52.030;113.516;2024-02-26T16:29:47;217.67;;;52.73;;
69419;SDS011;71621;52.030;113.516;2024-02-26T16:32:51;167.65;;;44.10;;
69419;SDS011;71621;52.030;113.516;2024-02-26T16:35:55;188.35;;;43.92;;
69419;SDS011;71621;52.030;113.516;2024-02-26T16:38:58;191.73;;;44.17;;
69419;SDS011;71621;52.030;113.516;2024-02-26T16:42:03;154.82;;;39.70;;
69419;SDS011;71621;52.030;113.516;2024-02-26T16:45:08;156.27;;;40.22;;
69419;SDS011;71621;52.030;113.516;2024-02-26T16:48:11;175.80;;;46.15;;
69419;SDS011;71621;52.030;113.516;2024-02-26T16:51:15;166.17;;;40.40;;
69419;SDS011;71621;52.030;113.516;2024-02-26T16:54:19;169.18;;;35.95;;
69419;SDS011;71621;52.030;113.516;2024-02-26T16:57:22;136.23;;;32.88;;
69419;SDS011;71621;52.030;113.516;2024-02-26T17:00:26;118.70;;;27.37;;
69419;SDS011;71621;52.030;113.516;2024-02-26T17:03:30;113.65;;;24.60;;
69419;SDS011;71621;52.030;113.516;2024-02-26T17:06:33;90.82;;;26.55;;
69419;SDS011;71621;52.030;113.516;2024-02-26T17:09:37;90.20;;;24.48;;
69419;SDS011;71621;52.030;113.516;2024-02-26T17:12:40;92.90;;;24.45;;
69419;SDS011;71621;52.030;113.516;2024-02-26T17:15:44;86.30;;;28.02;;
69419;SDS011;71621;52.030;113.516;2024-02-26T17:18:48;95.28;;;28.67;;
69419;SDS011;71621;52.030;113.516;2024-02-26T17:21:52;74.87;;;23.73;;
69419;SDS011;71621;52.030;113.516;2024-02-26T17:24:58;104.85;;;29.67;;
69419;SDS011;71621;52.030;113.516;2024-02-26T17:28:02;84.47;;;27.83;;
69419;SDS011;71621;52.030;113.516;2024-02-26T17:31:06;83.30;;;24.73;;
69419;SDS011;71621;52.030;113.516;2024-02-26T17:34:09;102.28;;;28.80;;
69419;SDS011;71621;52.030;113.516;2024-02-26T17:37:14;87.88;;;28.67;;
69419;SDS011;71621;52.030;113.516;2024-02-26T17:40:17;83.10;;;25.88;;
69419;SDS011;71621;52.030;113.516;2024-02-26T17:43:21;89.95;;;25.00;;